createdAt,value
2017-07-18T00:00:07.016Z,3.57
2017-07-18T00:02:34.464Z,4.60
2017-07-18T00:05:02.030Z,4.27
2017-07-18T00:07:29.596Z,4.43
2017-07-18T00:09:57.044Z,4.43
2017-07-18T00:12:24.593Z,4.60
2017-07-18T00:14:52.049Z,4.43
2017-07-18T00:17:19.501Z,4.30
2017-07-18T00:19:46.959Z,5.27
2017-07-18T00:22:14.437Z,4.17
2017-07-18T00:24:41.987Z,4.63
2017-07-18T00:27:09.547Z,4.27
2017-07-18T00:29:37.115Z,4.13
2017-07-18T00:32:04.669Z,5.57
2017-07-18T00:34:32.122Z,4.50
2017-07-18T00:36:59.688Z,4.57
2017-07-18T00:39:27.243Z,4.23
2017-07-18T00:41:54.698Z,4.17
2017-07-18T00:44:22.242Z,3.87
2017-07-18T00:46:49.716Z,3.90
2017-07-18T00:49:17.169Z,4.53
2017-07-18T00:51:44.738Z,4.40
2017-07-18T00:54:12.274Z,3.90
2017-07-18T00:56:39.837Z,4.37
2017-07-18T00:59:07.407Z,4.37
2017-07-18T01:01:34.958Z,3.80
2017-07-18T01:04:02.518Z,4.23
2017-07-18T01:06:29.997Z,4.50
2017-07-18T01:08:58.235Z,3.73
2017-07-18T01:11:25.684Z,4.43
2017-07-18T01:13:53.153Z,3.63
2017-07-18T01:16:20.727Z,3.67
2017-07-18T01:18:48.280Z,4.33
2017-07-18T01:21:15.853Z,4.17
2017-07-18T01:23:44.078Z,4.27
2017-07-18T01:26:11.595Z,4.20
2017-07-18T01:28:39.123Z,3.80
2017-07-18T01:31:06.584Z,4.00
2017-07-18T01:33:34.047Z,4.20
2017-07-18T01:36:01.524Z,3.60
2017-07-18T01:38:29.757Z,4.07
2017-07-18T01:40:57.346Z,4.13
2017-07-18T01:43:24.890Z,4.17
2017-07-18T01:45:52.356Z,4.27
2017-07-18T01:48:19.812Z,3.90
2017-07-18T01:50:47.371Z,3.70
2017-07-18T01:53:14.922Z,3.73
2017-07-18T01:55:42.477Z,4.10
2017-07-18T01:58:10.039Z,3.90
2017-07-18T02:00:37.589Z,3.80
2017-07-18T02:03:05.148Z,3.80
2017-07-18T02:05:32.601Z,4.47
2017-07-18T02:08:00.053Z,4.00
2017-07-18T02:10:27.508Z,3.67
2017-07-18T02:12:54.992Z,4.10
2017-07-18T02:15:23.216Z,3.50
2017-07-18T02:17:50.683Z,4.23
2017-07-18T02:20:18.163Z,3.30
2017-07-18T02:22:45.748Z,3.40
2017-07-18T02:25:13.226Z,3.60
2017-07-18T02:27:40.703Z,3.60
2017-07-18T02:30:08.210Z,4.63
2017-07-18T02:32:35.759Z,4.27
2017-07-18T02:35:04.043Z,3.90
2017-07-18T02:37:32.310Z,3.60
2017-07-18T02:39:59.762Z,4.43
2017-07-18T02:42:27.230Z,4.00
2017-07-18T02:44:54.704Z,3.97
2017-07-18T02:47:22.932Z,4.40
2017-07-18T02:49:50.514Z,4.13
2017-07-18T02:52:18.075Z,4.07
2017-07-18T02:54:45.702Z,4.40
2017-07-18T02:57:13.195Z,4.50
2017-07-18T02:59:40.755Z,5.20
2017-07-18T03:02:08.298Z,4.73
2017-07-18T03:04:35.871Z,5.30
2017-07-18T03:07:03.429Z,4.93
2017-07-18T03:09:30.882Z,4.93
2017-07-18T03:11:58.376Z,4.60
2017-07-18T03:14:25.825Z,4.40
2017-07-18T03:16:53.300Z,4.20
2017-07-18T03:19:20.757Z,4.53
2017-07-18T03:21:48.224Z,4.47
2017-07-18T03:24:27.716Z,4.20
2017-07-18T03:26:55.952Z,4.07
2017-07-18T03:29:23.418Z,4.50
2017-07-18T03:31:50.960Z,5.13
2017-07-18T03:34:18.519Z,4.43
2017-07-18T03:36:45.980Z,4.20
2017-07-18T03:39:13.462Z,5.20
2017-07-18T03:41:41.037Z,5.50
2017-07-18T03:44:09.403Z,5.00
2017-07-18T03:46:36.883Z,4.20
2017-07-18T03:49:05.137Z,4.83
2017-07-18T03:51:33.380Z,4.60
2017-07-18T03:54:00.858Z,5.07
2017-07-18T03:56:28.322Z,4.70
2017-07-18T03:58:55.870Z,4.40
2017-07-18T04:01:23.451Z,4.13
2017-07-18T04:03:51.719Z,5.00
2017-07-18T04:06:19.271Z,4.50
2017-07-18T04:08:46.833Z,3.83
2017-07-18T04:11:14.383Z,4.80
2017-07-18T04:13:41.848Z,4.53
2017-07-18T04:16:09.407Z,4.50
2017-07-18T04:18:36.881Z,4.60
2017-07-18T04:21:05.126Z,5.57
2017-07-18T04:23:32.607Z,4.10
2017-07-18T04:26:00.872Z,4.17
2017-07-18T04:28:28.422Z,5.80
2017-07-18T04:30:55.975Z,4.27
2017-07-18T04:33:23.435Z,4.77
2017-07-18T04:35:50.892Z,5.63
2017-07-18T04:38:18.464Z,4.30
2017-07-18T04:40:45.908Z,3.40
2017-07-18T04:43:13.775Z,3.77
2017-07-18T04:45:41.337Z,4.17
2017-07-18T04:48:08.895Z,3.67
2017-07-18T04:50:36.359Z,3.40
2017-07-18T04:53:03.914Z,3.47
2017-07-18T04:55:32.154Z,3.17
2017-07-18T04:57:59.644Z,3.17
2017-07-18T05:00:27.117Z,3.77
2017-07-18T05:02:55.389Z,3.97
2017-07-18T05:05:23.666Z,3.73
2017-07-18T05:07:51.923Z,3.27
2017-07-18T05:10:19.377Z,3.10
2017-07-18T05:12:46.862Z,2.90
2017-07-18T05:15:15.098Z,3.00
2017-07-18T05:17:42.679Z,3.10
2017-07-18T05:20:10.237Z,2.80
2017-07-18T05:22:37.799Z,2.33
2017-07-18T05:25:05.407Z,3.17
2017-07-18T05:27:32.901Z,2.40
2017-07-18T05:30:00.370Z,2.93
2017-07-18T05:32:27.927Z,3.00
2017-07-18T05:34:55.394Z,3.43
2017-07-18T05:37:23.655Z,2.90
2017-07-18T05:39:51.217Z,3.67
2017-07-18T05:42:18.690Z,2.13
2017-07-18T05:44:46.913Z,3.50
2017-07-18T05:47:14.403Z,2.67
2017-07-18T05:49:41.975Z,2.80
2017-07-18T05:52:10.224Z,3.60
2017-07-18T05:54:37.696Z,3.13
2017-07-18T05:57:05.157Z,2.97
2017-07-18T05:59:33.426Z,3.47
2017-07-18T06:02:00.987Z,3.47
2017-07-18T06:04:28.601Z,2.90
2017-07-18T06:06:56.094Z,2.67
2017-07-18T06:09:23.550Z,2.90
2017-07-18T06:11:51.124Z,2.60
2017-07-18T06:14:18.672Z,2.80
2017-07-18T06:16:46.143Z,3.10
2017-07-18T06:21:50.703Z,2.57
2017-07-18T06:24:18.232Z,2.90
2017-07-18T06:26:45.787Z,2.80
2017-07-18T06:29:13.355Z,1.90
2017-07-18T06:31:40.915Z,2.43
2017-07-18T06:34:08.467Z,2.47
2017-07-18T06:36:35.923Z,2.33
2017-07-18T06:39:03.391Z,2.83
2017-07-18T06:41:31.663Z,3.00
2017-07-18T06:43:59.203Z,2.60
2017-07-18T06:46:26.659Z,2.13
2017-07-18T06:48:54.225Z,2.50
2017-07-18T06:51:21.685Z,2.37
2017-07-18T06:53:49.237Z,2.47
2017-07-18T06:56:16.818Z,2.90
2017-07-18T06:58:45.071Z,3.03
2017-07-18T07:01:12.542Z,2.70
2017-07-18T07:03:40.000Z,1.77
2017-07-18T07:06:08.276Z,2.63
2017-07-18T07:08:35.805Z,2.40
2017-07-18T07:11:04.105Z,2.40
2017-07-18T07:13:31.556Z,3.00
2017-07-18T07:15:59.100Z,3.03
2017-07-18T07:18:26.562Z,2.87
2017-07-18T07:20:54.036Z,2.53
2017-07-18T07:23:21.578Z,3.40
2017-07-18T07:25:49.137Z,3.77
2017-07-18T07:28:16.601Z,2.50
2017-07-18T07:30:44.190Z,2.80
2017-07-18T07:33:12.691Z,2.80
2017-07-18T07:35:40.145Z,2.73
2017-07-18T07:38:07.594Z,2.07
2017-07-18T07:40:35.111Z,2.47
2017-07-18T07:43:02.822Z,2.33
2017-07-18T07:45:30.218Z,3.07
2017-07-18T07:47:57.678Z,2.57
2017-07-18T07:50:25.250Z,2.80
2017-07-18T07:52:52.802Z,2.53
2017-07-18T07:55:20.258Z,2.80
2017-07-18T07:57:47.719Z,2.80
2017-07-18T08:00:15.174Z,1.90
2017-07-18T08:02:42.653Z,1.90
2017-07-18T08:05:10.959Z,2.30
2017-07-18T08:07:38.465Z,2.73
2017-07-18T08:10:06.023Z,2.60
2017-07-18T08:12:33.582Z,2.37
2017-07-18T08:15:01.137Z,2.77
2017-07-18T08:17:28.689Z,2.47
2017-07-18T08:19:56.267Z,3.03
2017-07-18T08:22:24.521Z,2.20
2017-07-18T08:24:52.090Z,2.37
2017-07-18T08:27:19.650Z,1.90
2017-07-18T08:29:47.113Z,2.80
2017-07-18T08:32:15.387Z,2.00
2017-07-18T08:34:42.841Z,1.80
2017-07-18T08:37:10.319Z,2.17
2017-07-18T08:39:38.560Z,2.47
2017-07-18T08:42:06.040Z,2.50
2017-07-18T08:44:34.299Z,2.13
2017-07-18T08:47:01.757Z,2.30
2017-07-18T08:49:29.313Z,2.73
2017-07-18T08:51:56.874Z,2.37
2017-07-18T08:54:24.435Z,2.67
2017-07-18T08:56:52.013Z,2.40
2017-07-18T08:59:19.485Z,1.70
2017-07-18T09:01:47.011Z,2.40
2017-07-18T09:04:14.571Z,2.47
2017-07-18T09:06:42.123Z,2.00
2017-07-18T09:09:09.682Z,2.50
2017-07-18T09:11:37.133Z,2.60
2017-07-18T09:14:04.703Z,2.10
2017-07-18T09:16:32.265Z,2.93
2017-07-18T09:18:59.818Z,2.50
2017-07-18T09:21:27.282Z,2.33
2017-07-18T09:23:54.747Z,3.77
2017-07-18T09:26:23.013Z,1.90
2017-07-18T09:28:50.561Z,2.43
2017-07-18T09:31:18.027Z,2.30
2017-07-18T09:33:46.264Z,2.40
2017-07-18T09:36:13.750Z,2.43
2017-07-18T09:38:41.315Z,2.20
2017-07-18T09:41:08.857Z,2.50
2017-07-18T09:43:36.334Z,2.90
2017-07-18T09:46:04.594Z,2.37
2017-07-18T09:48:32.055Z,2.40
2017-07-18T09:50:59.602Z,2.30
2017-07-18T09:53:27.070Z,2.73
2017-07-18T09:55:55.301Z,2.93
2017-07-18T09:58:22.805Z,2.77
2017-07-18T10:00:50.257Z,2.77
2017-07-18T10:03:17.820Z,2.83
2017-07-18T10:05:45.395Z,2.40
2017-07-18T10:08:13.664Z,2.50
2017-07-18T10:10:41.934Z,2.40
2017-07-18T10:13:09.424Z,2.07
2017-07-18T10:15:36.894Z,2.30
2017-07-18T10:18:04.407Z,2.63
2017-07-18T10:20:31.870Z,2.67
2017-07-18T10:23:00.098Z,2.30
2017-07-18T10:25:27.575Z,2.63
2017-07-18T10:27:55.052Z,2.27
2017-07-18T10:30:22.605Z,2.60
2017-07-18T10:32:50.167Z,3.00
2017-07-18T10:35:17.721Z,2.43
2017-07-18T10:37:45.201Z,3.03
2017-07-18T10:40:13.424Z,2.93
2017-07-18T10:42:40.894Z,2.40
2017-07-18T10:45:08.365Z,2.00
2017-07-18T10:47:35.847Z,2.33
2017-07-18T10:50:04.101Z,2.90
2017-07-18T10:52:31.646Z,2.87
2017-07-18T10:54:59.101Z,2.80
2017-07-18T10:57:26.561Z,2.50
2017-07-18T10:59:54.013Z,2.70
2017-07-18T11:02:21.469Z,1.80
2017-07-18T11:04:48.944Z,2.00
2017-07-18T11:07:16.498Z,2.40
2017-07-18T11:09:43.962Z,3.40
2017-07-18T11:12:12.217Z,2.10
2017-07-18T11:14:39.678Z,2.10
2017-07-18T11:17:07.147Z,2.10
2017-07-18T11:19:35.423Z,2.43
2017-07-18T11:22:02.983Z,2.30
2017-07-18T11:24:31.255Z,2.50
2017-07-18T11:26:58.800Z,2.50
2017-07-18T11:29:26.260Z,2.20
2017-07-18T11:31:53.832Z,2.80
2017-07-18T11:34:21.393Z,2.40
2017-07-18T11:36:48.846Z,2.40
2017-07-18T11:39:16.302Z,2.27
2017-07-18T11:41:43.869Z,2.30
2017-07-18T11:44:12.133Z,2.33
2017-07-18T11:46:39.682Z,2.30
2017-07-18T11:49:07.156Z,2.17
2017-07-18T11:51:35.427Z,2.17
2017-07-18T11:54:02.890Z,2.50
2017-07-18T11:56:31.159Z,3.10
2017-07-18T11:58:58.620Z,2.30
2017-07-18T12:01:26.846Z,2.20
2017-07-18T12:03:54.301Z,2.03
2017-07-18T12:06:21.775Z,2.67
2017-07-18T12:08:49.243Z,2.30
2017-07-18T12:11:16.710Z,2.57
2017-07-18T12:13:44.174Z,2.27
2017-07-18T12:16:11.645Z,2.23
2017-07-18T12:18:51.976Z,2.40
2017-07-18T12:21:19.442Z,2.60
2017-07-18T12:23:46.993Z,2.10
2017-07-18T12:26:15.219Z,2.40
2017-07-18T12:28:42.669Z,2.07
2017-07-18T12:31:10.182Z,2.30
2017-07-18T12:33:37.742Z,2.07
2017-07-18T12:36:05.200Z,2.20
2017-07-18T12:38:32.667Z,2.20
2017-07-18T12:41:00.220Z,2.57
2017-07-18T12:43:28.504Z,2.27
2017-07-18T12:45:56.721Z,2.20
2017-07-18T12:48:24.190Z,2.10
2017-07-18T12:50:51.690Z,2.53
2017-07-18T12:53:19.930Z,2.77
2017-07-18T12:55:47.469Z,2.10
2017-07-18T12:58:14.985Z,2.37
2017-07-18T13:00:43.216Z,2.20
2017-07-18T13:03:10.703Z,2.20
2017-07-18T13:05:38.162Z,1.90
2017-07-18T13:08:05.715Z,2.00
2017-07-18T13:10:33.178Z,2.43
2017-07-18T13:13:00.739Z,1.83
2017-07-18T13:15:28.194Z,1.80
2017-07-18T13:17:55.740Z,1.83
2017-07-18T13:20:23.297Z,2.20
2017-07-18T13:22:50.862Z,2.40
2017-07-18T13:25:18.479Z,2.20
2017-07-18T13:27:45.942Z,2.27
2017-07-18T13:30:13.448Z,2.63
2017-07-18T13:32:41.669Z,2.40
2017-07-18T13:35:09.165Z,2.03
2017-07-18T13:37:36.734Z,1.97
2017-07-18T13:40:04.198Z,1.67
2017-07-18T13:42:32.452Z,1.83
2017-07-18T13:44:59.910Z,1.90
2017-07-18T13:47:27.473Z,2.20
2017-07-18T13:49:54.947Z,2.07
2017-07-18T13:52:23.161Z,1.90
2017-07-18T13:54:50.681Z,1.87
2017-07-18T13:57:18.937Z,1.97
2017-07-18T13:59:46.411Z,2.17
2017-07-18T14:02:14.666Z,2.37
2017-07-18T14:04:42.956Z,2.20
2017-07-18T14:07:10.422Z,2.40
2017-07-18T14:09:38.673Z,2.50
2017-07-18T14:12:06.255Z,2.40
2017-07-18T14:14:34.480Z,2.57
2017-07-18T14:17:01.980Z,1.87
2017-07-18T14:19:29.528Z,2.27
2017-07-18T14:21:57.075Z,2.13
2017-07-18T14:24:24.538Z,2.30
2017-07-18T14:26:52.090Z,2.30
2017-07-18T14:29:19.563Z,1.67
2017-07-18T14:31:47.016Z,1.73
2017-07-18T14:34:14.483Z,2.20
2017-07-18T14:36:42.747Z,2.13
2017-07-18T14:39:10.209Z,2.00
2017-07-18T14:41:38.428Z,2.00
2017-07-18T14:44:05.938Z,2.10
2017-07-18T14:46:33.515Z,2.17
2017-07-18T14:49:00.990Z,2.63
2017-07-18T14:51:28.515Z,1.70
2017-07-18T14:53:56.778Z,2.60
2017-07-18T14:56:24.339Z,2.50
2017-07-18T14:58:51.799Z,2.47
2017-07-18T15:01:19.361Z,2.23
2017-07-18T15:03:46.914Z,2.00
2017-07-18T15:06:14.460Z,1.63
2017-07-18T15:08:42.030Z,2.20
2017-07-18T15:11:09.504Z,2.40
2017-07-18T15:13:37.734Z,2.20
2017-07-18T15:16:05.183Z,2.60
2017-07-18T15:18:32.733Z,2.87
2017-07-18T15:21:00.198Z,2.23
2017-07-18T15:23:27.689Z,2.17
2017-07-18T15:25:55.162Z,2.73
2017-07-18T15:28:23.394Z,2.33
2017-07-18T15:30:50.892Z,2.30
2017-07-18T15:33:19.162Z,2.30
2017-07-18T15:35:46.620Z,2.70
2017-07-18T15:38:14.890Z,2.10
2017-07-18T15:40:42.440Z,2.20
2017-07-18T15:43:10.002Z,2.23
2017-07-18T15:45:37.466Z,2.23
2017-07-18T15:48:05.018Z,2.43
2017-07-18T15:50:32.579Z,2.60
2017-07-18T15:53:00.860Z,2.07
2017-07-18T15:55:28.313Z,2.33
2017-07-18T15:57:55.783Z,2.73
2017-07-18T16:00:24.101Z,2.07
2017-07-18T16:02:51.582Z,2.27
2017-07-18T16:05:19.047Z,2.40
2017-07-18T16:07:46.513Z,2.57
2017-07-18T16:10:14.086Z,2.80
2017-07-18T16:12:42.350Z,2.70
2017-07-18T16:15:09.842Z,2.60
2017-07-18T16:17:37.366Z,2.23
2017-07-18T16:20:04.916Z,2.57
2017-07-18T16:22:32.436Z,2.10
2017-07-18T16:24:59.891Z,2.73
2017-07-18T16:27:27.365Z,2.63
2017-07-18T16:29:54.908Z,2.50
2017-07-18T16:32:22.411Z,2.37
2017-07-18T16:34:49.969Z,2.90
2017-07-18T16:37:17.431Z,2.70
2017-07-18T16:39:44.972Z,3.00
2017-07-18T16:42:12.429Z,2.60
2017-07-18T16:44:39.894Z,3.10
2017-07-18T16:47:07.455Z,2.70
2017-07-18T16:49:34.921Z,2.50
2017-07-18T16:52:03.137Z,2.70
2017-07-18T16:54:30.608Z,3.10
2017-07-18T16:56:58.107Z,2.50
2017-07-18T16:59:26.374Z,2.93
2017-07-18T17:01:53.920Z,2.73
2017-07-18T17:04:21.404Z,3.00
2017-07-18T17:06:49.633Z,3.23
2017-07-18T17:09:17.099Z,2.70
2017-07-18T17:11:44.580Z,2.47
2017-07-18T17:14:12.133Z,2.90
2017-07-18T17:16:39.635Z,3.47
2017-07-18T17:19:07.159Z,2.83
2017-07-18T17:21:34.714Z,3.20
2017-07-18T17:24:02.266Z,2.97
2017-07-18T17:26:29.840Z,2.93
2017-07-18T17:28:58.065Z,3.30
2017-07-18T17:31:25.538Z,2.80
2017-07-18T17:33:52.998Z,3.63
2017-07-18T17:36:20.578Z,3.07
2017-07-18T17:38:48.042Z,3.13
2017-07-18T17:41:16.294Z,2.93
2017-07-18T17:43:43.758Z,3.00
2017-07-18T17:46:11.224Z,2.87
2017-07-18T17:48:38.788Z,5.90
2017-07-18T17:51:07.061Z,3.13
2017-07-18T17:53:34.521Z,3.23
2017-07-18T17:56:02.772Z,3.07
2017-07-18T17:58:30.229Z,3.23
2017-07-18T18:00:57.688Z,3.27
2017-07-18T18:03:25.244Z,2.87
2017-07-18T18:05:52.716Z,2.70
2017-07-18T18:08:20.177Z,3.47
2017-07-18T18:10:48.441Z,2.87
2017-07-18T18:13:15.897Z,3.23
2017-07-18T18:15:43.473Z,3.53
2017-07-18T18:18:11.713Z,3.40
2017-07-18T18:20:39.242Z,3.70
2017-07-18T18:23:06.728Z,3.90
2017-07-18T18:25:34.196Z,3.03
2017-07-18T18:28:01.660Z,3.30
2017-07-18T18:30:29.219Z,3.23
2017-07-18T18:32:56.677Z,4.00
2017-07-18T18:35:24.248Z,3.10
2017-07-18T18:37:51.702Z,3.03
2017-07-18T18:40:19.995Z,3.20
2017-07-18T18:42:48.252Z,3.33
2017-07-18T18:45:15.704Z,3.13
2017-07-18T18:47:43.183Z,3.47
2017-07-18T18:50:11.419Z,3.73
2017-07-18T18:52:38.945Z,3.50
2017-07-18T18:55:06.460Z,4.70
2017-07-18T18:57:34.722Z,3.87
2017-07-18T19:00:02.187Z,3.60
2017-07-18T19:02:29.651Z,3.60
2017-07-18T19:04:57.910Z,4.00
2017-07-18T19:07:25.383Z,3.07
2017-07-18T19:09:53.601Z,4.03
2017-07-18T19:12:21.089Z,3.23
2017-07-18T19:14:48.650Z,3.70
2017-07-18T19:17:16.214Z,3.97
2017-07-18T19:19:43.683Z,4.30
2017-07-18T19:22:11.220Z,3.23
2017-07-18T19:24:38.789Z,3.40
2017-07-18T19:27:06.253Z,3.97
2017-07-18T19:29:33.860Z,3.20
2017-07-18T19:32:01.367Z,3.87
2017-07-18T19:34:28.931Z,3.87
2017-07-18T19:36:56.487Z,3.60
2017-07-18T19:39:23.944Z,4.60
2017-07-18T19:41:51.504Z,3.63
2017-07-18T19:44:19.049Z,4.10
2017-07-18T19:46:46.518Z,4.53
2017-07-18T19:49:14.075Z,4.00
2017-07-18T19:51:41.634Z,4.93
2017-07-18T19:54:09.102Z,3.80
2017-07-18T19:56:37.376Z,4.33
2017-07-18T19:59:05.667Z,4.63
2017-07-18T20:01:33.907Z,4.00
2017-07-18T20:04:01.471Z,4.37
2017-07-18T20:06:28.918Z,4.30
2017-07-18T20:08:57.847Z,4.40
2017-07-18T20:11:25.477Z,6.90
2017-07-18T20:13:53.091Z,14.10
2017-07-18T20:16:20.807Z,10.30
2017-07-18T20:18:48.414Z,9.93
2017-07-18T20:21:15.913Z,13.57
2017-07-18T20:23:43.943Z,15.87
2017-07-18T20:26:12.527Z,10.43
2017-07-18T20:28:40.123Z,10.50
2017-07-18T20:31:07.604Z,9.30
2017-07-18T20:33:35.860Z,7.97
2017-07-18T20:36:04.621Z,9.50
2017-07-18T20:38:32.467Z,12.00
2017-07-18T20:41:00.552Z,9.40
2017-07-18T20:43:28.012Z,9.60
2017-07-18T20:45:55.504Z,8.13
2017-07-18T20:48:23.112Z,6.37
2017-07-18T20:50:50.708Z,5.83
2017-07-18T20:53:18.226Z,5.93
2017-07-18T20:55:46.860Z,6.20
2017-07-18T20:58:14.413Z,6.60
2017-07-18T21:00:42.486Z,5.27
2017-07-18T21:03:10.179Z,5.03
2017-07-18T21:05:38.730Z,6.80
2017-07-18T21:08:06.302Z,5.20
2017-07-18T21:10:33.850Z,4.90
2017-07-18T21:13:01.416Z,4.80
2017-07-18T21:15:28.877Z,5.70
2017-07-18T21:17:57.106Z,5.40
2017-07-18T21:20:24.598Z,5.07
2017-07-18T21:22:52.148Z,5.23
2017-07-18T21:25:19.715Z,5.20
2017-07-18T21:27:47.270Z,4.50
2017-07-18T21:30:14.840Z,4.73
2017-07-18T21:32:42.293Z,5.10
2017-07-18T21:35:09.761Z,5.63
2017-07-18T21:37:38.018Z,4.90
2017-07-18T21:40:05.583Z,6.03
2017-07-18T21:42:33.156Z,4.67
2017-07-18T21:45:00.637Z,5.20
2017-07-18T21:47:28.154Z,4.80
2017-07-18T21:49:55.723Z,4.87
2017-07-18T21:52:24.003Z,5.10
2017-07-18T21:54:52.266Z,4.50
2017-07-18T21:57:19.810Z,4.03
2017-07-18T21:59:47.390Z,3.93
2017-07-18T22:02:14.836Z,4.60
2017-07-18T22:04:42.394Z,4.10
2017-07-18T22:07:09.955Z,4.00
2017-07-18T22:09:38.344Z,5.10
2017-07-18T22:12:06.587Z,3.93
2017-07-18T22:14:34.092Z,4.17
2017-07-18T22:17:01.634Z,4.33
2017-07-18T22:19:29.094Z,4.60
2017-07-18T22:21:57.344Z,4.50
2017-07-18T22:24:24.910Z,4.40
2017-07-18T22:26:52.466Z,3.83
2017-07-18T22:29:20.043Z,4.60
2017-07-18T22:31:48.328Z,4.23
2017-07-18T22:34:16.549Z,4.63
2017-07-18T22:36:44.092Z,5.10
2017-07-18T22:39:11.608Z,4.40
2017-07-18T22:41:39.168Z,4.93
2017-07-18T22:44:07.422Z,4.40
2017-07-18T22:46:34.879Z,4.43
2017-07-18T22:49:02.443Z,4.63
2017-07-18T22:51:29.896Z,3.97
2017-07-18T22:53:57.462Z,4.67
2017-07-18T22:56:25.022Z,4.70
2017-07-18T22:58:52.578Z,4.37
2017-07-18T23:01:20.141Z,4.37
2017-07-18T23:03:47.698Z,4.43
2017-07-18T23:06:15.258Z,4.60
2017-07-18T23:08:42.727Z,4.70
2017-07-18T23:11:10.986Z,4.30
2017-07-18T23:13:38.459Z,4.40
2017-07-18T23:16:06.728Z,4.40
2017-07-18T23:18:34.271Z,3.97
2017-07-18T23:21:01.749Z,4.50
2017-07-18T23:23:29.982Z,4.67
2017-07-18T23:25:57.452Z,4.60
2017-07-18T23:28:25.018Z,4.80
2017-07-18T23:30:52.479Z,4.50
2017-07-18T23:33:20.033Z,3.43
2017-07-18T23:35:47.490Z,4.63
2017-07-18T23:38:15.020Z,4.70
2017-07-18T23:40:42.622Z,4.87
2017-07-18T23:43:10.082Z,7.37
2017-07-18T23:45:38.341Z,4.37
2017-07-18T23:48:05.856Z,4.33
2017-07-18T23:50:33.416Z,4.57
2017-07-18T23:53:00.909Z,3.87
2017-07-18T23:55:28.379Z,4.70
2017-07-18T23:57:55.935Z,4.10
